Auckland International Airport

NZAA | AKL

Auckland , Auckland , New Zealand

Saturday, September 21st, 2019 | 23:34

Weather

NZAA 211100Z AUTO 20007KT 9999 NCD 11/09 Q1034 NOSIG

Charts

No Charts Available

Gates

67 Available

Runways

1 Available

Events

No events for this airport


New event